Time;durP1;ratioP1;P1;durP2;ratioP2;P2;SDS_P1;SDS_P2;PMS_P1;PMS_P2;Temp;Humidity;BMP_temperature;BMP_pressure;BME280_temperature;BME280_humidity;BME280_pressure;Samples;Min_cycle;Max_cycle;Signal;HPM_P1;HPM_P2
2023/06/04 00:02:03;;;;;;;11.50;6.60;;;;;;;14.04;84.85;95815.91;106835;1274;25191;-71
2023/06/04 00:04:31;;;;;;;11.20;6.50;;;;;;;14.01;84.82;95816.89;106824;1274;22628;-70
2023/06/04 00:07:00;;;;;;;8.10;6.40;;;;;;;14.05;85.09;95818.02;106780;1274;22530;-70
2023/06/04 00:09:28;;;;;;;10.60;6.40;;;;;;;14.10;84.54;95818.79;106821;1274;25002;-70
2023/06/04 00:11:56;;;;;;;9.60;6.00;;;;;;;14.09;84.64;95821.45;106870;1251;25582;-71
2023/06/04 00:14:24;;;;;;;10.00;6.10;;;;;;;14.07;85.27;95815.85;106738;1274;22640;-70
2023/06/04 00:16:53;;;;;;;10.10;6.00;;;;;;;14.11;85.17;95817.84;106784;1274;22510;-71
2023/06/04 00:19:21;;;;;;;7.70;6.00;;;;;;;14.14;85.26;95821.15;106683;1274;24218;-71
2023/06/04 00:21:49;;;;;;;7.30;6.30;;;;;;;14.13;85.80;95816.02;106627;1274;24254;-71
2023/06/04 00:24:18;;;;;;;10.30;6.10;;;;;;;14.15;85.68;95815.95;106768;1274;22482;-70
2023/06/04 00:26:46;;;;;;;8.40;5.70;;;;;;;14.20;85.25;95813.88;106741;1274;24501;-71
2023/06/04 00:29:15;;;;;;;9.10;6.60;;;;;;;14.21;84.85;95814.55;106813;1274;24202;-71
2023/06/04 00:31:43;;;;;;;8.30;6.00;;;;;;;14.17;84.81;95816.25;106838;1274;22517;-71
2023/06/04 00:34:11;;;;;;;10.00;6.20;;;;;;;14.13;84.45;95818.52;106742;1274;23238;-70
2023/06/04 00:36:40;;;;;;;16.80;9.40;;;;;;;14.08;84.13;95817.75;106711;1274;22587;-70
2023/06/04 00:39:09;;;;;;;23.30;13.90;;;;;;;14.11;84.41;95818.04;106821;1274;23920;-70
2023/06/04 00:41:38;;;;;;;22.80;12.00;;;;;;;14.09;84.58;95818.46;106824;1274;22510;-71
2023/06/04 00:44:06;;;;;;;19.90;12.70;;;;;;;14.08;84.96;95811.04;106875;1274;22614;-70
2023/06/04 00:46:38;;;;;;;20.10;10.40;;;;;;;14.04;84.60;95812.76;106770;1274;25389;-70
2023/06/04 00:49:07;;;;;;;15.40;7.40;;;;;;;14.01;85.03;95813.36;106795;1274;25303;-71
2023/06/04 00:51:35;;;;;;;12.50;5.40;;;;;;;14.02;84.94;95816.34;106764;1274;25363;-70
2023/06/04 00:54:08;;;;;;;7.10;5.10;;;;;;;14.06;85.03;95816.75;106697;1274;25343;-70
2023/06/04 00:56:38;;;;;;;8.00;5.30;;;;;;;14.09;85.09;95815.61;106752;1274;22627;-71
2023/06/04 00:59:08;;;;;;;6.80;5.20;;;;;;;14.08;85.33;95813.35;106841;1274;22530;-71
2023/06/04 01:01:43;;;;;;;8.50;5.40;;;;;;;14.01;85.06;95812.85;106821;1274;24215;-70
2023/06/04 01:04:18;;;;;;;7.10;5.20;;;;;;;13.99;85.26;95813.60;106693;1274;22508;-71
2023/06/04 01:06:51;;;;;;;7.40;5.40;;;;;;;13.98;85.07;95813.80;106847;1274;24370;-71
2023/06/04 01:09:20;;;;;;;6.30;5.20;;;;;;;13.91;85.00;95812.77;106781;1274;22521;-71
2023/06/04 01:11:49;;;;;;;8.10;5.40;;;;;;;13.84;85.47;95816.69;106812;1274;22517;-71
2023/06/04 01:14:18;;;;;;;8.10;6.10;;;;;;;13.81;85.32;95814.81;106794;1274;23014;-70
2023/06/04 01:17:01;;;;;;;12.70;6.90;;;;;;;13.74;84.86;95818.52;106780;1270;22650;-71
2023/06/04 01:20:04;;;;;;;7.10;4.50;;;;;;;13.65;84.55;95814.18;106657;1263;24186;-71
2023/06/04 01:22:59;;;;;;;8.30;5.10;;;;;;;13.50;84.26;95820.23;106782;1274;22514;-70
2023/06/04 01:25:43;;;;;;;7.60;4.90;;;;;;;13.33;84.32;95821.21;106732;1274;22514;-70
2023/06/04 01:28:15;;;;;;;10.90;5.50;;;;;;;13.17;85.38;95825.11;106704;1274;24202;-70
2023/06/04 01:30:45;;;;;;;11.40;5.50;;;;;;;13.11;85.14;95836.93;106815;1274;22507;-71
2023/06/04 01:33:17;;;;;;;11.90;5.20;;;;;;;13.01;85.31;95836.09;106788;1274;25396;-70
2023/06/04 01:35:45;;;;;;;6.50;4.80;;;;;;;12.99;85.05;95837.04;106788;1274;22520;-70
2023/06/04 01:38:14;;;;;;;7.00;5.20;;;;;;;12.92;85.45;95836.86;106683;1274;25384;-71
2023/06/04 01:40:42;;;;;;;7.40;5.10;;;;;;;12.90;85.46;95834.27;106656;1274;24371;-70
2023/06/04 01:43:10;;;;;;;12.60;7.10;;;;;;;12.91;85.92;95832.65;106745;1274;25368;-70
2023/06/04 01:45:38;;;;;;;8.90;5.70;;;;;;;12.88;85.66;95837.13;106761;1274;24184;-71
2023/06/04 01:48:07;;;;;;;12.60;7.40;;;;;;;12.82;85.67;95839.39;106755;1272;22511;-70
2023/06/04 01:50:36;;;;;;;8.90;6.30;;;;;;;12.72;86.41;95838.38;106790;1274;24374;-70
2023/06/04 01:53:04;;;;;;;6.30;5.40;;;;;;;12.67;86.24;95837.96;106767;1274;25504;-70
2023/06/04 01:55:33;;;;;;;9.30;5.00;;;;;;;12.60;86.51;95840.95;106668;1274;22622;-70
2023/06/04 01:58:02;;;;;;;5.00;4.10;;;;;;;12.55;86.14;95842.48;106750;1274;22532;-70
2023/06/04 02:00:30;;;;;;;5.90;4.80;;;;;;;12.52;86.15;95840.23;106669;1274;22521;-70
2023/06/04 02:02:59;;;;;;;4.30;3.70;;;;;;;12.53;86.92;95845.53;106638;1274;23878;-70
2023/06/04 02:05:28;;;;;;;7.10;4.30;;;;;;;12.49;86.82;95854.08;106800;1274;22507;-70
2023/06/04 02:07:57;;;;;;;5.60;4.60;;;;;;;12.44;87.26;95848.19;106739;1274;24416;-70
2023/06/04 02:10:25;;;;;;;10.10;4.00;;;;;;;12.38;86.61;95853.79;106786;1274;22624;-70
2023/06/04 02:12:59;;;;;;;5.40;4.30;;;;;;;12.33;86.72;95854.77;106636;1274;24248;-70
2023/06/04 02:15:28;;;;;;;15.20;9.50;;;;;;;12.32;87.42;95855.31;106692;1274;24253;-70
2023/06/04 02:18:02;;;;;;;15.40;8.30;;;;;;;12.34;87.51;95857.56;106783;1274;25495;-70
2023/06/04 02:20:31;;;;;;;8.20;6.00;;;;;;;12.37;87.26;95862.45;106785;1274;24242;-70
2023/06/04 02:22:59;;;;;;;9.20;5.10;;;;;;;12.39;86.69;95865.76;106743;1274;25204;-70
2023/06/04 02:25:27;;;;;;;6.10;4.50;;;;;;;12.35;86.20;95867.96;106794;1274;22637;-70
2023/06/04 02:27:56;;;;;;;9.80;5.20;;;;;;;12.37;86.64;95861.73;106725;1274;22509;-70
2023/06/04 02:30:24;;;;;;;5.10;4.00;;;;;;;12.42;86.84;95861.65;106780;1274;25381;-70
2023/06/04 02:32:54;;;;;;;6.40;5.60;;;;;;;12.40;86.27;95865.39;106652;1274;24217;-70
2023/06/04 02:35:24;;;;;;;6.90;4.90;;;;;;;12.33;85.86;95866.23;106706;1274;23011;-70
2023/06/04 02:37:53;;;;;;;6.80;4.50;;;;;;;12.31;85.91;95872.28;106822;1274;22508;-70
2023/06/04 02:40:21;;;;;;;10.00;5.00;;;;;;;12.24;86.04;95872.41;106837;1274;22514;-70
2023/06/04 02:42:49;;;;;;;6.90;4.30;;;;;;;12.29;86.51;95876.72;106743;1274;22520;-70
2023/06/04 02:45:17;;;;;;;6.00;4.50;;;;;;;12.32;86.17;95877.72;106652;1274;22505;-70
2023/06/04 02:47:45;;;;;;;5.00;4.30;;;;;;;12.26;85.48;95875.91;106637;1274;22508;-70
2023/06/04 02:50:15;;;;;;;6.90;4.40;;;;;;;12.16;85.58;95878.41;106704;1274;24326;-70
2023/06/04 02:52:44;;;;;;;7.60;4.60;;;;;;;12.10;86.07;95879.41;106779;1274;25346;-70
2023/06/04 02:55:12;;;;;;;6.40;4.50;;;;;;;12.01;85.81;95881.16;106708;1274;22518;-70
2023/06/04 02:57:42;;;;;;;6.60;4.30;;;;;;;12.00;86.28;95885.08;106811;1274;22615;-70
2023/06/04 03:00:14;;;;;;;7.40;4.10;;;;;;;12.02;86.43;95878.52;106789;1274;25274;-70
2023/06/04 03:02:44;;;;;;;7.60;4.70;;;;;;;12.01;85.88;95877.30;106760;1274;22567;-70
2023/06/04 03:05:15;;;;;;;6.00;5.10;;;;;;;11.92;85.49;95878.70;106778;1274;22641;-70
2023/06/04 03:07:45;;;;;;;6.00;4.70;;;;;;;11.78;85.11;95883.70;106785;1274;22531;-70
2023/06/04 03:10:15;;;;;;;9.30;5.70;;;;;;;11.70;85.75;95883.13;106618;1274;22511;-71
2023/06/04 03:12:43;;;;;;;10.40;5.60;;;;;;;11.70;85.95;95881.38;106807;1274;25274;-70
2023/06/04 03:15:12;;;;;;;7.50;6.20;;;;;;;11.70;85.93;95880.48;106796;1274;23929;-69
2023/06/04 03:17:41;;;;;;;8.50;6.10;;;;;;;11.63;85.88;95882.73;106794;1274;24539;-70
2023/06/04 03:20:11;;;;;;;9.60;6.00;;;;;;;11.62;86.36;95883.45;106259;1266;682544;-70
2023/06/04 03:22:39;;;;;;;6.80;5.60;;;;;;;11.64;86.65;95878.65;106669;1274;22521;-70
2023/06/04 03:25:08;;;;;;;7.50;5.70;;;;;;;11.65;86.91;95880.75;106703;1274;22580;-70
2023/06/04 03:27:36;;;;;;;8.70;5.30;;;;;;;11.64;86.66;95880.61;106845;1274;22517;-70
2023/06/04 03:30:06;;;;;;;6.90;5.20;;;;;;;11.64;86.42;95879.91;106823;1274;22524;-70
2023/06/04 03:32:53;;;;;;;7.60;5.60;;;;;;;11.59;86.66;95882.27;106659;1274;22508;-70
2023/06/04 03:35:22;;;;;;;8.20;5.20;;;;;;;11.59;87.00;95886.50;106948;1274;24570;-70
2023/06/04 03:37:50;;;;;;;8.10;5.10;;;;;;;11.61;86.94;95888.40;106648;1274;22524;-70
2023/06/04 03:40:18;;;;;;;7.60;4.90;;;;;;;11.63;87.01;95886.59;106606;1274;22630;-70
2023/06/04 03:42:46;;;;;;;8.30;4.90;;;;;;;11.69;87.13;95886.68;106715;1274;25457;-70
2023/06/04 03:45:16;;;;;;;7.50;4.80;;;;;;;11.74;86.82;95890.83;106692;1274;22526;-70
2023/06/04 03:47:46;;;;;;;5.70;4.70;;;;;;;11.82;87.15;95891.91;106766;1274;22537;-70
2023/06/04 03:50:14;;;;;;;8.20;4.50;;;;;;;11.92;87.21;95891.75;106826;1274;22520;-70
2023/06/04 03:52:43;;;;;;;6.00;4.20;;;;;;;12.03;87.36;95890.12;106693;1274;25271;-70
2023/06/04 03:55:11;;;;;;;6.70;4.40;;;;;;;12.13;87.28;95890.98;106766;1274;26733;-69
2023/06/04 03:57:41;;;;;;;6.40;4.80;;;;;;;12.25;87.35;95894.97;106805;1274;22921;-70
2023/06/04 04:00:12;;;;;;;5.90;4.60;;;;;;;12.37;87.62;95898.61;106657;1274;25214;-70
2023/06/04 04:02:41;;;;;;;5.80;5.20;;;;;;;12.50;87.87;95900.46;107036;1274;24318;-70
2023/06/04 04:05:14;;;;;;;6.10;4.90;;;;;;;12.69;88.05;95899.34;106681;1274;22516;-70
2023/06/04 04:07:47;;;;;;;6.50;5.10;;;;;;;12.86;87.87;95898.45;106790;1274;22521;-70
2023/06/04 04:10:16;;;;;;;6.30;5.40;;;;;;;13.00;87.78;95900.75;106786;1274;22524;-69
2023/06/04 04:12:45;;;;;;;5.80;5.00;;;;;;;13.14;87.77;95899.55;106680;1274;25152;-71
2023/06/04 04:15:13;;;;;;;7.10;5.10;;;;;;;13.34;87.56;95896.11;106772;1274;25427;-70
2023/06/04 04:17:43;;;;;;;8.10;5.30;;;;;;;13.50;87.22;95901.00;106825;1274;22533;-70
2023/06/04 04:20:11;;;;;;;9.80;5.00;;;;;;;13.65;86.78;95897.45;106662;1274;23874;-70
2023/06/04 04:22:45;;;;;;;5.40;4.60;;;;;;;13.78;86.26;95892.49;106787;1253;22750;-70
2023/06/04 04:25:13;;;;;;;5.10;4.60;;;;;;;13.92;85.93;95893.23;106730;1274;26629;-70
2023/06/04 04:27:42;;;;;;;7.20;4.60;;;;;;;13.98;85.31;95891.28;106659;1274;22520;-70
2023/06/04 04:30:13;;;;;;;5.30;4.30;;;;;;;14.06;85.24;95884.66;106734;1274;22684;-70
2023/06/04 04:32:48;;;;;;;5.40;4.20;;;;;;;14.16;85.26;95882.81;106692;1274;22583;-70
2023/06/04 04:35:23;;;;;;;5.50;3.90;;;;;;;14.25;84.51;95881.85;106764;1274;22626;-70
2023/06/04 04:37:54;;;;;;;8.20;5.40;;;;;;;14.30;83.59;95879.23;106797;1274;25482;-71
2023/06/04 04:40:22;;;;;;;6.30;5.00;;;;;;;14.30;82.80;95881.88;106708;1274;25383;-70
2023/06/04 04:42:51;;;;;;;6.00;4.60;;;;;;;14.36;83.41;95882.27;106623;1274;22652;-70
2023/06/04 04:45:20;;;;;;;5.00;4.40;;;;;;;14.44;83.22;95882.38;106830;1274;25423;-71
2023/06/04 04:47:53;;;;;;;5.90;4.80;;;;;;;14.53;83.03;95880.90;106758;1274;25333;-70
2023/06/04 04:50:21;;;;;;;5.00;4.10;;;;;;;14.55;82.18;95876.95;106664;1274;22531;-71
2023/06/04 04:52:50;;;;;;;4.70;3.80;;;;;;;14.56;81.41;95876.03;106770;1274;22512;-71
2023/06/04 04:55:19;;;;;;;4.40;4.00;;;;;;;14.55;81.38;95873.05;106539;1274;22941;-70
2023/06/04 04:57:48;;;;;;;4.70;3.70;;;;;;;14.56;81.25;95876.92;106814;1274;22514;-70
2023/06/04 05:00:18;;;;;;;4.90;3.90;;;;;;;14.59;81.14;95876.30;106713;1274;25380;-71
2023/06/04 05:02:48;;;;;;;4.10;3.70;;;;;;;14.66;80.82;95873.08;106754;1274;22511;-70
2023/06/04 05:05:16;;;;;;;4.10;3.70;;;;;;;14.73;80.95;95870.03;106659;1274;22510;-70
2023/06/04 05:07:45;;;;;;;4.20;3.80;;;;;;;14.82;81.00;95869.95;106817;1274;22873;-70
2023/06/04 05:10:14;;;;;;;7.30;3.60;;;;;;;14.91;80.55;95871.05;106734;1274;23138;-70
2023/06/04 05:12:59;;;;;;;5.30;4.20;;;;;;;14.95;80.17;95869.02;106726;1274;24199;-70
2023/06/04 05:15:33;;;;;;;5.50;3.50;;;;;;;14.92;79.53;95869.99;106699;1274;25292;-70
2023/06/04 05:18:03;;;;;;;5.50;3.40;;;;;;;14.94;79.87;95875.58;106619;1274;22605;-71
2023/06/04 05:20:37;;;;;;;5.60;3.90;;;;;;;15.06;80.07;95874.86;106776;1256;24389;-70
2023/06/04 05:23:07;;;;;;;4.90;3.70;;;;;;;15.19;80.30;95879.21;106696;1274;22781;-70
2023/06/04 05:25:36;;;;;;;7.00;3.90;;;;;;;15.31;79.68;95879.38;106766;1274;22511;-70
2023/06/04 05:28:06;;;;;;;5.30;3.70;;;;;;;15.42;79.02;95884.17;106695;1274;25532;-71
2023/06/04 05:30:35;;;;;;;4.10;3.70;;;;;;;15.54;79.30;95881.27;106783;1274;22521;-72
2023/06/04 05:33:04;;;;;;;6.50;3.30;;;;;;;15.68;78.19;95887.56;106792;1274;22649;-71
2023/06/04 05:35:33;;;;;;;6.60;3.60;;;;;;;15.76;78.04;95888.19;106733;1274;25456;-70
2023/06/04 05:38:02;;;;;;;7.60;3.40;;;;;;;15.90;78.41;95885.91;106821;1274;22513;-71
2023/06/04 05:40:30;;;;;;;7.70;3.20;;;;;;;16.08;78.71;95886.89;106731;1274;22508;-68
2023/06/04 05:42:58;;;;;;;4.50;3.50;;;;;;;16.24;76.50;95891.11;106737;1274;22512;-71
2023/06/04 05:45:27;;;;;;;6.80;4.00;;;;;;;16.28;75.90;95895.08;106643;1274;24066;-70
2023/06/04 05:47:55;;;;;;;6.50;3.70;;;;;;;16.43;76.78;95896.11;106772;1274;22517;-71
2023/06/04 05:50:24;;;;;;;5.40;3.80;;;;;;;16.67;76.83;95900.91;106814;1274;25012;-71
2023/06/04 05:52:53;;;;;;;6.30;3.80;;;;;;;16.87;76.09;95897.67;106592;1274;22518;-71
2023/06/04 05:55:22;;;;;;;6.10;4.40;;;;;;;17.04;75.71;95893.66;106769;1274;25442;-71
2023/06/04 05:57:51;;;;;;;8.10;4.70;;;;;;;17.15;74.73;95894.83;106813;1274;22573;-70
2023/06/04 06:00:21;;;;;;;11.90;4.60;;;;;;;17.31;75.16;95895.42;106808;1274;22514;-70
2023/06/04 06:02:52;;;;;;;7.70;4.00;;;;;;;17.53;74.52;95892.58;106779;1274;22507;-71
2023/06/04 06:05:34;;;;;;;5.20;3.80;;;;;;;17.61;73.66;95892.77;106735;1274;25446;-71
2023/06/04 06:08:04;;;;;;;4.80;4.30;;;;;;;17.77;73.56;95895.70;106764;1274;22512;-70
2023/06/04 06:10:33;;;;;;;5.50;4.00;;;;;;;17.99;73.62;95896.21;106707;1274;24246;-71
2023/06/04 06:13:02;;;;;;;5.20;3.90;;;;;;;18.19;72.71;95893.91;106680;1274;25476;-70
2023/06/04 06:15:30;;;;;;;5.50;3.80;;;;;;;18.34;70.63;95891.66;106708;1274;22530;-70
2023/06/04 06:17:59;;;;;;;5.50;3.60;;;;;;;18.42;69.17;95891.27;106649;1274;22514;-70
2023/06/04 06:20:29;;;;;;;5.30;4.30;;;;;;;18.49;68.34;95889.34;106779;1274;22544;-70
2023/06/04 06:23:05;;;;;;;5.40;4.20;;;;;;;18.57;68.78;95895.77;106770;1263;25291;-70
2023/06/04 06:25:33;;;;;;;5.30;3.70;;;;;;;18.63;66.14;95892.65;106788;1274;22579;-71
2023/06/04 06:28:07;;;;;;;6.90;3.60;;;;;;;18.66;64.22;95898.38;106714;1274;24641;-70
2023/06/04 06:30:37;;;;;;;6.10;3.40;;;;;;;18.59;57.35;95893.36;106828;1274;22517;-71
2023/06/04 06:33:05;;;;;;;4.90;3.40;;;;;;;18.63;59.23;95892.80;106804;1274;25333;-70
2023/06/04 06:35:33;;;;;;;10.20;3.60;;;;;;;18.75;62.37;95892.48;106751;1274;25315;-70
2023/06/04 06:38:02;;;;;;;5.70;3.70;;;;;;;18.83;61.99;95896.56;106754;1274;25249;-70
2023/06/04 06:40:30;;;;;;;4.90;3.20;;;;;;;18.72;56.72;95902.23;106695;1274;22536;-70
2023/06/04 06:42:58;;;;;;;3.10;2.70;;;;;;;18.62;54.68;95901.59;106656;1274;25377;-71
2023/06/04 06:45:27;;;;;;;6.70;3.20;;;;;;;18.46;52.63;95900.89;106739;1274;22560;-70
2023/06/04 06:47:55;;;;;;;5.30;3.70;;;;;;;18.39;55.11;95902.80;106725;1274;25268;-70
2023/06/04 06:50:23;;;;;;;7.00;3.20;;;;;;;18.28;55.81;95902.59;106729;1274;22766;-70
2023/06/04 06:52:52;;;;;;;4.30;3.10;;;;;;;18.31;56.49;95896.04;106780;1274;25386;-70
2023/06/04 06:55:20;;;;;;;5.00;3.70;;;;;;;18.47;57.46;95898.73;106778;1274;22632;-70
2023/06/04 06:57:48;;;;;;;5.90;3.30;;;;;;;18.48;55.64;95901.18;106704;1274;24200;-70
2023/06/04 07:00:17;;;;;;;5.20;3.30;;;;;;;18.32;56.18;95904.02;106715;1274;24192;-70
2023/06/04 07:02:45;;;;;;;4.90;3.20;;;;;;;18.27;57.21;95907.26;106746;1274;24314;-70
2023/06/04 07:05:16;;;;;;;6.30;3.10;;;;;;;18.38;58.01;95908.90;106663;1274;24977;-70
2023/06/04 07:07:46;;;;;;;4.40;3.20;;;;;;;18.60;57.14;95907.23;106789;1274;22755;-69
2023/06/04 07:10:14;;;;;;;7.40;3.30;;;;;;;18.81;57.46;95900.78;106805;1274;22526;-71
2023/06/04 07:12:42;;;;;;;6.60;3.90;;;;;;;18.72;54.87;95904.35;106642;1274;24346;-70
2023/06/04 07:15:11;;;;;;;7.90;3.80;;;;;;;18.65;54.75;95908.41;106735;1274;25332;-70
2023/06/04 07:17:39;;;;;;;4.80;3.10;;;;;;;18.74;54.25;95904.98;106748;1274;22628;-70
2023/06/04 07:20:09;;;;;;;3.80;3.10;;;;;;;18.92;55.45;95911.30;106804;1274;24374;-70
2023/06/04 07:22:38;;;;;;;4.80;2.80;;;;;;;18.93;53.50;95914.14;106764;1274;22611;-70
2023/06/04 07:25:06;;;;;;;3.80;3.10;;;;;;;18.88;51.75;95916.68;106844;1274;24247;-70
2023/06/04 07:27:35;;;;;;;4.10;3.00;;;;;;;18.93;52.90;95915.55;106817;1274;22546;-70
2023/06/04 07:30:04;;;;;;;4.80;3.40;;;;;;;18.98;53.52;95925.27;106743;1275;22639;-70
2023/06/04 07:32:32;;;;;;;6.30;3.50;;;;;;;19.03;53.71;95923.29;106685;1274;22590;-70
2023/06/04 07:35:02;;;;;;;4.00;3.50;;;;;;;19.18;54.79;95920.60;106784;1274;24065;-70
2023/06/04 07:37:31;;;;;;;5.40;3.30;;;;;;;19.35;52.89;95920.17;106637;1274;22518;-70
2023/06/04 07:39:59;;;;;;;4.90;3.20;;;;;;;19.52;53.00;95918.63;106773;1274;25412;-70
2023/06/04 07:42:27;;;;;;;5.00;3.10;;;;;;;19.72;53.60;95924.64;106756;1274;22521;-70
2023/06/04 07:44:55;;;;;;;3.40;2.90;;;;;;;19.96;53.91;95926.30;106738;1274;24246;-70
2023/06/04 07:47:24;;;;;;;3.70;3.10;;;;;;;20.11;51.91;95930.20;106771;1274;22806;-70
2023/06/04 07:49:53;;;;;;;6.90;3.10;;;;;;;20.29;51.66;95929.77;106787;1274;22568;-70
2023/06/04 07:52:30;;;;;;;5.40;3.30;;;;;;;20.49;51.49;95929.29;106729;1274;22517;-70
2023/06/04 07:54:59;;;;;;;4.80;2.90;;;;;;;20.60;50.93;95930.74;106710;1274;25319;-71
2023/06/04 07:57:28;;;;;;;7.10;3.60;;;;;;;20.69;51.46;95932.04;106713;1274;25462;-71
2023/06/04 07:59:57;;;;;;;5.30;3.10;;;;;;;20.70;51.46;95931.25;106714;1274;22548;-71
2023/06/04 08:02:26;;;;;;;7.60;3.60;;;;;;;20.60;51.56;95931.09;106786;1274;23961;-71
2023/06/04 08:04:55;;;;;;;34.30;21.40;;;;;;;20.56;52.57;95933.45;106708;1275;24237;-71
2023/06/04 08:07:23;;;;;;;84.70;75.10;;;;;;;20.52;51.16;95935.96;106723;1274;25337;-71
2023/06/04 08:09:51;;;;;;;5.70;4.20;;;;;;;20.39;51.96;95929.83;106758;1274;22803;-71
2023/06/04 08:12:20;;;;;;;5.10;3.80;;;;;;;20.27;52.04;95937.94;106746;1265;22511;-72
2023/06/04 08:14:50;;;;;;;6.20;3.40;;;;;;;20.12;51.54;95938.91;106740;1274;24336;-71
2023/06/04 08:17:18;;;;;;;6.70;4.10;;;;;;;19.84;50.78;95936.70;106799;1274;24387;-71
2023/06/04 08:19:46;;;;;;;17.90;16.30;;;;;;;19.60;52.41;95938.56;106690;1274;22517;-71
2023/06/04 08:22:14;;;;;;;8.00;4.30;;;;;;;19.60;52.17;95946.09;106753;1274;24375;-71
2023/06/04 08:24:43;;;;;;;10.40;9.40;;;;;;;19.61;51.87;95951.58;106694;1274;25271;-71
2023/06/04 08:27:11;;;;;;;6.80;3.20;;;;;;;19.67;52.33;95949.86;106666;1274;22510;-71
2023/06/04 08:29:40;;;;;;;5.00;3.20;;;;;;;19.85;51.11;95945.93;106782;1274;24220;-71
2023/06/04 08:32:08;;;;;;;4.30;3.10;;;;;;;19.89;49.34;95944.34;106776;1274;25325;-71
2023/06/04 08:34:36;;;;;;;4.20;3.00;;;;;;;20.06;51.24;95943.48;106764;1274;23262;-71
2023/06/04 08:37:05;;;;;;;5.60;2.90;;;;;;;20.20;50.91;95944.19;106765;1274;24262;-71
2023/06/04 08:39:33;;;;;;;4.10;3.00;;;;;;;20.16;49.87;95941.53;106780;1274;22512;-71
2023/06/04 08:42:08;;;;;;;3.90;3.30;;;;;;;20.19;50.99;95946.77;106651;1274;25383;-71
2023/06/04 08:44:36;;;;;;;4.00;3.30;;;;;;;20.38;51.72;95945.23;106731;1274;22533;-71
2023/06/04 08:47:05;;;;;;;4.40;3.20;;;;;;;20.51;51.51;95947.40;106690;1274;22522;-71
2023/06/04 08:49:40;;;;;;;6.30;3.40;;;;;;;20.54;51.61;95947.28;106791;1274;26630;-70
2023/06/04 08:52:08;;;;;;;5.10;3.40;;;;;;;20.49;51.75;95949.47;106757;1263;22520;-71
2023/06/04 08:54:37;;;;;;;17.70;16.00;;;;;;;20.39;50.96;95954.30;106713;1274;22457;-70
2023/06/04 08:57:07;;;;;;;4.60;2.70;;;;;;;20.31;51.07;95950.61;106804;1274;25395;-70
2023/06/04 08:59:36;;;;;;;4.80;3.50;;;;;;;20.36;50.71;95952.85;106836;1274;24237;-71
2023/06/04 09:02:04;;;;;;;3.80;3.20;;;;;;;20.57;50.61;95951.77;106772;1274;22640;-71
2023/06/04 09:04:34;;;;;;;4.90;3.30;;;;;;;20.64;50.29;95946.95;106746;1274;22531;-70
2023/06/04 09:07:03;;;;;;;6.30;3.20;;;;;;;20.67;49.52;95950.92;106770;1274;22514;-70
2023/06/04 09:09:36;;;;;;;3.40;3.10;;;;;;;20.80;49.12;95947.75;106772;1274;25415;-71
2023/06/04 09:12:10;;;;;;;2.80;2.60;;;;;;;20.90;48.26;95943.22;106775;1274;25213;-71
2023/06/04 09:14:38;;;;;;;4.20;3.20;;;;;;;21.05;48.27;95937.97;106759;1270;22516;-70
2023/06/04 09:17:06;;;;;;;6.20;3.20;;;;;;;21.10;49.82;95940.21;106726;1274;26700;-70
2023/06/04 09:19:34;;;;;;;6.40;2.80;;;;;;;21.25;49.84;95937.23;106759;1274;24220;-70
2023/06/04 09:22:03;;;;;;;4.80;3.40;;;;;;;21.45;49.78;95942.02;106764;1275;25332;-70
2023/06/04 09:24:52;;;;;;;4.60;3.30;;;;;;;21.52;49.08;95942.03;106852;1274;24216;-70
2023/06/04 09:27:22;;;;;;;13.70;3.70;;;;;;;21.50;48.77;95949.65;106772;1274;22520;-70
2023/06/04 09:30:00;;;;;;;8.60;3.30;;;;;;;21.64;49.54;95949.04;106769;1274;25258;-71
2023/06/04 09:32:30;;;;;;;5.60;3.30;;;;;;;21.98;48.89;95939.55;106764;1274;24208;-71
2023/06/04 09:35:16;;;;;;;5.50;3.40;;;;;;;22.28;48.04;95940.86;106772;1274;22604;-70
2023/06/04 09:37:55;;;;;;;5.70;3.40;;;;;;;22.32;47.82;95939.05;106745;1274;22524;-70
2023/06/04 09:40:35;;;;;;;5.00;3.70;;;;;;;22.48;47.11;95943.80;106612;1274;22521;-71
2023/06/04 09:43:04;;;;;;;3.30;3.00;;;;;;;22.66;47.59;95942.19;106699;1274;24079;-72
2023/06/04 09:45:35;;;;;;;5.60;3.40;;;;;;;22.71;46.98;95939.70;106743;1275;24392;-71
2023/06/04 09:48:05;;;;;;;4.60;3.10;;;;;;;22.58;47.05;95941.20;106770;1274;22631;-71
2023/06/04 09:50:38;;;;;;;4.80;3.30;;;;;;;22.50;47.44;95938.48;106766;1274;22530;-71
2023/06/04 09:53:15;;;;;;;6.70;3.80;;;;;;;22.38;47.30;95942.77;106763;1275;22536;-71
2023/06/04 09:55:44;;;;;;;4.20;3.40;;;;;;;22.23;46.45;95947.08;106721;1274;22513;-72
2023/06/04 09:58:14;;;;;;;5.60;3.40;;;;;;;22.07;46.79;95945.64;106705;1275;22691;-71
2023/06/04 10:00:45;;;;;;;5.70;3.20;;;;;;;21.99;47.26;95942.91;106745;1275;24252;-71
2023/06/04 10:03:17;;;;;;;5.00;3.40;;;;;;;22.04;47.53;95940.81;106751;1274;22763;-71
2023/06/04 10:05:45;;;;;;;4.30;3.10;;;;;;;22.29;48.05;95940.98;106766;1275;22562;-72
2023/06/04 10:08:17;;;;;;;4.70;3.40;;;;;;;22.81;47.21;95942.35;106708;1275;22554;-71
2023/06/04 10:10:46;;;;;;;4.40;3.10;;;;;;;23.28;45.48;95939.96;106756;1274;24246;-72
2023/06/04 10:13:18;;;;;;;4.50;3.30;;;;;;;23.44;44.73;95946.70;106730;1274;22531;-71
2023/06/04 10:15:47;;;;;;;5.00;3.50;;;;;;;23.47;44.12;95946.28;106790;1274;22766;-71
2023/06/04 10:18:16;;;;;;;3.60;2.90;;;;;;;23.38;44.75;95952.77;106807;1274;25214;-71
2023/06/04 10:20:45;;;;;;;4.50;3.40;;;;;;;23.16;44.44;95950.98;106689;1274;22574;-71
2023/06/04 10:23:15;;;;;;;3.50;3.20;;;;;;;22.86;44.70;95955.48;106778;1274;24208;-71
2023/06/04 10:25:45;;;;;;;7.10;3.50;;;;;;;22.61;45.55;95952.90;106698;1274;22537;-71
2023/06/04 10:28:15;;;;;;;5.70;3.20;;;;;;;22.35;46.01;95955.92;106736;1274;22521;-71
2023/06/04 10:30:43;;;;;;;6.00;3.30;;;;;;;22.21;47.34;95964.42;106774;1274;24381;-71
2023/06/04 10:33:13;;;;;;;4.20;3.40;;;;;;;22.13;48.22;95958.92;106694;1274;25331;-70
2023/06/04 10:35:44;;;;;;;6.30;3.30;;;;;;;22.15;48.44;95960.58;106755;1274;22538;-71
2023/06/04 10:38:14;;;;;;;4.70;3.10;;;;;;;22.45;48.65;95956.56;106676;1274;22524;-70
2023/06/04 10:40:43;;;;;;;5.20;3.40;;;;;;;22.86;48.10;95957.98;106768;1274;24237;-71
2023/06/04 10:43:13;;;;;;;4.60;3.30;;;;;;;22.97;47.34;95959.67;106733;1274;22786;-71
2023/06/04 10:45:42;;;;;;;6.10;3.40;;;;;;;22.90;46.80;95960.59;106716;1274;24222;-71
2023/06/04 10:48:12;;;;;;;3.80;3.20;;;;;;;22.79;46.24;95957.88;106920;1274;22637;-71
2023/06/04 10:50:52;;;;;;;5.60;3.40;;;;;;;22.66;46.16;95956.52;106769;1274;25255;-71
2023/06/04 10:53:21;;;;;;;4.10;3.10;;;;;;;22.50;45.74;95963.24;106778;1260;24206;-71
2023/06/04 10:55:50;;;;;;;5.20;3.30;;;;;;;22.43;47.08;95960.97;106810;1274;25456;-71
2023/06/04 10:58:20;;;;;;;5.00;3.30;;;;;;;22.56;47.14;95961.98;106806;1274;25463;-71
2023/06/04 11:00:49;;;;;;;5.50;3.60;;;;;;;22.47;46.56;95963.20;106762;1274;22599;-71
2023/06/04 11:03:18;;;;;;;4.80;3.40;;;;;;;22.29;46.12;95960.36;106821;1274;24236;-71
2023/06/04 11:05:50;;;;;;;4.30;3.40;;;;;;;22.10;46.36;95964.14;106751;1274;25382;-71
2023/06/04 11:08:29;;;;;;;5.00;3.10;;;;;;;21.90;46.69;95974.20;106652;1274;22647;-71
2023/06/04 11:10:58;;;;;;;4.00;3.30;;;;;;;21.74;47.54;95974.09;106779;1274;22639;-71
2023/06/04 11:13:26;;;;;;;5.00;3.30;;;;;;;21.62;47.96;95974.23;106639;1274;22936;-71
2023/06/04 11:15:55;;;;;;;4.50;3.40;;;;;;;21.49;48.09;95979.55;106767;1274;22549;-71
2023/06/04 11:18:24;;;;;;;5.70;3.70;;;;;;;21.36;48.66;95977.95;106942;1274;22563;-71
2023/06/04 11:21:00;;;;;;;5.50;3.50;;;;;;;21.28;48.94;95976.26;106736;1274;24243;-71
2023/06/04 11:23:29;;;;;;;6.10;3.30;;;;;;;21.21;48.62;95977.85;106761;1274;25479;-71
2023/06/04 11:25:58;;;;;;;6.30;3.70;;;;;;;21.16;49.05;95980.67;106754;1274;25311;-71
2023/06/04 11:28:27;;;;;;;4.10;3.40;;;;;;;21.13;49.35;95974.35;106760;1274;22524;-71
2023/06/04 11:31:02;;;;;;;5.00;3.60;;;;;;;21.10;49.40;95977.23;106743;1274;24221;-72
2023/06/04 11:33:45;;;;;;;5.30;3.30;;;;;;;21.08;49.71;95975.38;106765;1270;24235;-71
2023/06/04 11:36:27;;;;;;;5.30;3.60;;;;;;;21.05;50.10;95974.30;106744;1274;25453;-71
2023/06/04 11:39:00;;;;;;;5.60;3.90;;;;;;;20.94;50.17;95977.90;106805;1270;22511;-71